createdAt,value
2022-11-29T00:01:38.568Z,101362.69
2022-11-29T00:04:05.721Z,101339.56
2022-11-29T00:06:35.215Z,101338.53
2022-11-29T00:09:06.563Z,101347.34
2022-11-29T00:11:55.193Z,101346.50
2022-11-29T00:14:23.248Z,101344.56
2022-11-29T00:16:53.274Z,101339.97
2022-11-29T00:19:20.675Z,101330.19
2022-11-29T00:21:48.019Z,101316.97
2022-11-29T00:24:15.849Z,101337.16
2022-11-29T00:26:43.055Z,101339.97
2022-11-29T00:29:12.277Z,101327.53
2022-11-29T00:31:40.179Z,101338.97
2022-11-29T00:34:08.114Z,101321.88
2022-11-29T00:36:35.670Z,101309.41
2022-11-29T00:39:04.747Z,101330.25
2022-11-29T00:41:32.838Z,101329.41
2022-11-29T00:43:59.927Z,101320.84
2022-11-29T00:46:27.034Z,101312.53
2022-11-29T00:48:54.237Z,101325.06
2022-11-29T00:51:21.954Z,101320.47
2022-11-29T00:53:48.940Z,101323.00
2022-11-29T00:56:16.387Z,101309.72
2022-11-29T00:58:46.097Z,101325.13
2022-11-29T01:01:13.227Z,101316.97
2022-11-29T01:03:40.578Z,101322.53
2022-11-29T01:06:13.997Z,101332.78
2022-11-29T01:08:41.839Z,101331.94
2022-11-29T01:11:20.523Z,101322.28
2022-11-29T01:13:49.077Z,101297.72
2022-11-29T01:16:18.277Z,101326.38
2022-11-29T01:18:45.533Z,101323.03
2022-11-29T01:21:18.534Z,101302.31
2022-11-29T01:23:46.706Z,101311.38
2022-11-29T01:26:16.219Z,101321.28
2022-11-29T01:28:47.352Z,101319.47
2022-11-29T01:31:21.019Z,101310.91
2022-11-29T01:33:48.140Z,101307.69
2022-11-29T01:36:15.648Z,101311.56
2022-11-29T01:38:43.183Z,101320.13
2022-11-29T01:41:18.704Z,101311.00
2022-11-29T01:44:16.305Z,101323.28
2022-11-29T01:46:46.226Z,101325.34
2022-11-29T01:49:17.772Z,101312.00
2022-11-29T01:51:50.514Z,101317.06
2022-11-29T01:54:18.399Z,101325.22
2022-11-29T01:56:47.142Z,101329.94
2022-11-29T01:59:17.423Z,101325.47
2022-11-29T02:01:44.447Z,101331.41
2022-11-29T02:04:12.283Z,101344.16
2022-11-29T02:06:41.069Z,101317.56
2022-11-29T02:09:20.591Z,101335.97
2022-11-29T02:12:06.988Z,101333.06
2022-11-29T02:14:51.848Z,101329.44
2022-11-29T02:17:49.813Z,101327.63
2022-11-29T02:20:16.751Z,101336.66
2022-11-29T02:23:28.591Z,101328.47
2022-11-29T02:26:22.881Z,101336.09
2022-11-29T02:29:17.670Z,101339.94
2022-11-29T02:32:02.959Z,101327.31
2022-11-29T02:34:29.999Z,101313.56
2022-11-29T02:37:18.552Z,101336.25
2022-11-29T02:40:15.043Z,101330.09
2022-11-29T02:42:56.276Z,101338.41
2022-11-29T02:45:41.451Z,101333.09
2022-11-29T02:48:29.832Z,101333.09
2022-11-29T02:51:11.801Z,101334.31
2022-11-29T02:53:57.283Z,101334.44
2022-11-29T02:57:01.395Z,101329.72
2022-11-29T02:59:43.248Z,101326.09
2022-11-29T03:02:25.504Z,101333.56
2022-11-29T03:05:20.080Z,101324.50
2022-11-29T03:08:24.911Z,101319.72
2022-11-29T03:11:18.804Z,101332.78
2022-11-29T03:13:48.735Z,101329.19
2022-11-29T03:16:44.593Z,101329.75
2022-11-29T03:19:17.543Z,101331.56
2022-11-29T03:21:57.093Z,101326.53
2022-11-29T03:24:36.013Z,101321.47
2022-11-29T03:27:09.526Z,101329.16
2022-11-29T03:29:43.559Z,101357.63
2022-11-29T03:32:20.738Z,101340.63
2022-11-29T03:34:57.159Z,101340.88
2022-11-29T03:37:46.437Z,101342.91
2022-11-29T03:40:19.020Z,101338.09
2022-11-29T03:43:00.973Z,101338.34
2022-11-29T03:45:45.704Z,101353.31
2022-11-29T03:48:33.250Z,101316.72
2022-11-29T03:51:03.301Z,101340.78
2022-11-29T03:54:00.198Z,101353.69
2022-11-29T03:56:34.083Z,101362.84
2022-11-29T03:59:10.249Z,101352.72
2022-11-29T04:02:04.070Z,101354.53
2022-11-29T04:04:43.430Z,101354.41
2022-11-29T04:07:48.234Z,101353.69
2022-11-29T04:10:17.726Z,101358.13
2022-11-29T04:13:19.434Z,101367.19
2022-11-29T04:15:46.475Z,101356.72
2022-11-29T04:18:35.064Z,101356.25
2022-11-29T04:21:10.931Z,101370.59
2022-11-29T04:23:59.049Z,101363.72
2022-11-29T04:27:24.965Z,101353.38
2022-11-29T04:30:10.891Z,101370.47
2022-11-29T04:33:15.531Z,101369.88
2022-11-29T04:35:52.924Z,101372.66
2022-11-29T04:38:48.004Z,101374.09
2022-11-29T04:41:46.529Z,101367.13
2022-11-29T04:44:22.616Z,101374.81
2022-11-29T04:47:26.642Z,101370.25
2022-11-29T04:50:05.652Z,101380.72
2022-11-29T04:52:59.882Z,101387.59
2022-11-29T04:55:35.786Z,101393.59
2022-11-29T04:58:35.924Z,101385.06
2022-11-29T05:01:12.565Z,101400.13
2022-11-29T05:03:53.851Z,101400.59
2022-11-29T05:06:45.546Z,101416.50
2022-11-29T05:09:28.049Z,101407.13
2022-11-29T05:12:09.119Z,101413.63
2022-11-29T05:15:05.267Z,101423.88
2022-11-29T05:18:07.506Z,101415.91
2022-11-29T05:21:00.843Z,101426.53
2022-11-29T05:23:47.165Z,101409.16
2022-11-29T05:26:26.369Z,101434.72
2022-11-29T05:28:59.447Z,101430.25
2022-11-29T05:31:26.586Z,101430.38
2022-11-29T05:34:12.626Z,101432.06
2022-11-29T05:37:43.317Z,101424.22
2022-11-29T05:40:41.560Z,101432.19
2022-11-29T05:43:41.918Z,101434.72
2022-11-29T05:46:34.344Z,101429.41
2022-11-29T05:49:27.627Z,101424.97
2022-11-29T05:52:12.950Z,101433.75
2022-11-29T05:54:53.375Z,101443.75
2022-11-29T05:57:37.354Z,101430.84
2022-11-29T06:00:05.968Z,101432.91
2022-11-29T06:03:07.603Z,101442.28
2022-11-29T06:05:40.426Z,101444.72
2022-11-29T06:08:46.291Z,101441.81
2022-11-29T06:11:24.284Z,101431.19
2022-11-29T06:14:14.659Z,101441.81
2022-11-29T06:16:51.367Z,101439.28
2022-11-29T06:19:37.945Z,101449.19
2022-11-29T06:22:08.229Z,101448.22
2022-11-29T06:24:45.644Z,101457.72
2022-11-29T06:27:48.368Z,101457.25
2022-11-29T06:30:20.869Z,101476.88
2022-11-29T06:32:54.514Z,101464.22
2022-11-29T06:36:09.410Z,101464.00
2022-11-29T06:38:36.364Z,101464.97
2022-11-29T06:41:03.596Z,101473.28
2022-11-29T06:43:31.506Z,101478.22
2022-11-29T06:46:14.327Z,101488.69
2022-11-29T06:49:26.808Z,101477.13
2022-11-29T06:52:02.990Z,101469.75
2022-11-29T06:54:55.759Z,101472.44
2022-11-29T06:57:49.037Z,101480.50
2022-11-29T07:00:22.671Z,101480.13
2022-11-29T07:03:23.680Z,101474.25
2022-11-29T07:05:51.335Z,101465.78
2022-11-29T07:08:24.090Z,101474.47
2022-11-29T07:10:54.198Z,101473.16
2022-11-29T07:13:22.732Z,101476.28
2022-11-29T07:16:12.697Z,101491.84
2022-11-29T07:19:03.981Z,101473.41
2022-11-29T07:21:46.274Z,101480.03
2022-11-29T07:24:26.426Z,101481.97
2022-11-29T07:27:11.999Z,101483.41
2022-11-29T07:29:46.032Z,101487.16
2022-11-29T07:32:39.304Z,101490.50
2022-11-29T07:35:16.548Z,101502.06
2022-11-29T07:38:01.943Z,101492.91
2022-11-29T07:40:45.907Z,101476.88
2022-11-29T07:43:44.820Z,101492.19
2022-11-29T07:46:12.268Z,101470.97
2022-11-29T07:48:40.599Z,101453.16
2022-11-29T07:51:07.840Z,101466.03
2022-11-29T07:53:41.348Z,101463.50
2022-11-29T07:56:16.525Z,101508.13
2022-11-29T07:58:44.023Z,101500.41
2022-11-29T08:01:11.542Z,101490.50
2022-11-29T08:03:39.000Z,101466.31
2022-11-29T08:06:06.484Z,101434.22
2022-11-29T08:08:36.652Z,101463.38
2022-11-29T08:11:11.850Z,101476.50
2022-11-29T08:13:38.884Z,101491.13
2022-11-29T08:16:06.115Z,101477.63
2022-11-29T08:18:39.628Z,101496.06
2022-11-29T08:21:09.335Z,101480.84
2022-11-29T08:23:36.590Z,101457.38
2022-11-29T08:26:04.208Z,101479.06
2022-11-29T08:28:31.898Z,101488.22
2022-11-29T08:31:07.363Z,101488.34
2022-11-29T08:33:44.821Z,101498.94
2022-11-29T08:36:18.469Z,101478.19
2022-11-29T08:38:48.424Z,101489.41
2022-11-29T08:41:17.432Z,101485.94
2022-11-29T08:43:45.001Z,101481.47
2022-11-29T08:46:18.309Z,101484.97
2022-11-29T08:48:47.239Z,101478.09
2022-11-29T08:51:14.545Z,101487.97
2022-11-29T08:53:41.889Z,101474.09
2022-11-29T08:59:06.120Z,101496.78
2022-11-29T09:01:33.589Z,101472.41
2022-11-29T09:04:02.552Z,101484.84
2022-11-29T09:06:38.131Z,101501.97
2022-11-29T09:09:06.338Z,101485.94
2022-11-29T09:11:36.104Z,101499.44
2022-11-29T09:14:06.301Z,101501.72
2022-11-29T09:16:36.436Z,101494.47
2022-11-29T09:19:05.558Z,101501.47
2022-11-29T09:21:36.774Z,101497.59
2022-11-29T09:24:07.368Z,101488.06
2022-11-29T09:26:38.359Z,101481.56
2022-11-29T09:29:07.011Z,101491.56
2022-11-29T09:31:38.224Z,101484.66
2022-11-29T09:34:07.861Z,101478.13
2022-11-29T09:36:35.430Z,101471.72
2022-11-29T09:39:03.060Z,101457.03
2022-11-29T09:42:03.965Z,101468.81
2022-11-29T09:45:09.723Z,101481.13
2022-11-29T09:47:52.026Z,101484.34
2022-11-29T09:50:26.671Z,101488.38
2022-11-29T09:53:04.759Z,101475.22
2022-11-29T09:55:48.617Z,101480.53
2022-11-29T09:58:23.015Z,101463.13
2022-11-29T10:01:00.297Z,101464.81
2022-11-29T10:03:38.329Z,101466.63
2022-11-29T10:06:11.945Z,101474.25
2022-11-29T10:08:54.195Z,101453.75
2022-11-29T10:11:32.019Z,101459.63
2022-11-29T10:14:35.697Z,101468.22
2022-11-29T10:17:34.544Z,101465.50
2022-11-29T10:20:10.382Z,101458.66
2022-11-29T10:23:14.206Z,101446.00
2022-11-29T10:25:49.456Z,101451.41
2022-11-29T10:28:29.399Z,101481.84
2022-11-29T10:31:10.973Z,101449.53
2022-11-29T10:33:41.635Z,101433.06
2022-11-29T10:36:34.182Z,101471.94
2022-11-29T10:39:10.045Z,101411.25
2022-11-29T10:41:42.695Z,101476.25
2022-11-29T10:44:14.858Z,101467.53
2022-11-29T10:46:42.202Z,101425.97
2022-11-29T10:49:23.888Z,101446.09
2022-11-29T10:51:56.895Z,101444.13
2022-11-29T10:54:38.677Z,101425.09
2022-11-29T10:57:14.723Z,101458.25
2022-11-29T11:00:04.745Z,101461.97
2022-11-29T11:02:34.521Z,101453.78
2022-11-29T11:05:03.131Z,101476.53
2022-11-29T11:07:38.378Z,101446.66
2022-11-29T11:10:26.810Z,101469.78
2022-11-29T11:13:20.368Z,101460.25
2022-11-29T11:15:47.416Z,101452.75
2022-11-29T11:18:23.482Z,101443.09
2022-11-29T11:21:00.195Z,101454.88
2022-11-29T11:23:31.856Z,101465.25
2022-11-29T11:26:03.198Z,101458.84
2022-11-29T11:28:30.412Z,101460.78
2022-11-29T11:31:05.775Z,101460.72
2022-11-29T11:33:35.001Z,101458.78
2022-11-29T11:36:02.315Z,101476.25
2022-11-29T11:38:29.827Z,101454.31
2022-11-29T11:41:17.406Z,101477.97
2022-11-29T11:44:48.851Z,101463.63
2022-11-29T11:47:29.480Z,101452.44
2022-11-29T11:50:02.771Z,101461.81
2022-11-29T11:52:53.491Z,101465.72
2022-11-29T11:55:32.673Z,101460.06
2022-11-29T11:58:13.640Z,101465.38
2022-11-29T12:01:04.014Z,101469.00
2022-11-29T12:03:39.743Z,101465.25
2022-11-29T12:06:39.510Z,101460.06
2022-11-29T12:09:10.031Z,101472.16
2022-11-29T12:12:10.229Z,101476.28
2022-11-29T12:14:42.297Z,101453.84
2022-11-29T12:17:19.914Z,101476.41
2022-11-29T12:20:07.602Z,101481.22
2022-11-29T12:22:49.657Z,101479.78
2022-11-29T12:25:27.363Z,101475.56
2022-11-29T12:27:54.919Z,101428.94
2022-11-29T12:30:22.731Z,101466.38
2022-11-29T12:33:09.129Z,101480.88
2022-11-29T12:35:58.710Z,101481.13
2022-11-29T12:38:38.773Z,101470.38
2022-11-29T12:41:39.546Z,101481.69
2022-11-29T12:44:22.962Z,101490.38
2022-11-29T12:47:35.317Z,101485.41
2022-11-29T12:50:20.806Z,101490.72
2022-11-29T12:52:55.798Z,101484.56
2022-11-29T12:55:48.286Z,101485.50
2022-11-29T12:58:46.075Z,101477.03
2022-11-29T13:01:16.287Z,101484.38
2022-11-29T13:04:08.159Z,101491.81
2022-11-29T13:07:06.198Z,101490.13
2022-11-29T13:10:18.236Z,101498.94
2022-11-29T13:12:57.599Z,101471.03
2022-11-29T13:15:43.103Z,101479.59
2022-11-29T13:18:32.777Z,101471.47
2022-11-29T13:21:25.357Z,101479.59
2022-11-29T13:24:09.884Z,101488.25
2022-11-29T13:26:40.949Z,101486.38
2022-11-29T13:29:18.371Z,101478.50
2022-11-29T13:31:50.507Z,101476.06
2022-11-29T13:34:36.649Z,101470.69
2022-11-29T13:37:25.108Z,101480.22
2022-11-29T13:40:10.454Z,101505.28
2022-11-29T13:42:47.458Z,101473.59
2022-11-29T13:45:39.601Z,101484.16
2022-11-29T13:48:37.316Z,101490.72
2022-11-29T13:51:35.587Z,101479.53
2022-11-29T13:54:26.521Z,101483.84
2022-11-29T13:57:07.187Z,101457.66
2022-11-29T13:59:47.271Z,101483.88
2022-11-29T14:02:30.524Z,101487.13
2022-11-29T14:04:57.899Z,101473.91
2022-11-29T14:07:26.763Z,101482.28
2022-11-29T14:10:29.071Z,101477.94
2022-11-29T14:12:57.650Z,101481.41
2022-11-29T14:15:29.061Z,101490.59
2022-11-29T14:18:07.931Z,101485.00
2022-11-29T14:21:00.413Z,101496.94
2022-11-29T14:23:43.786Z,101487.91
2022-11-29T14:26:11.041Z,101495.19
2022-11-29T14:28:40.698Z,101492.97
2022-11-29T14:31:09.938Z,101486.22
2022-11-29T14:33:40.229Z,101504.28
2022-11-29T14:36:31.753Z,101483.78
2022-11-29T14:39:29.726Z,101484.09
2022-11-29T14:42:19.057Z,101464.09
2022-11-29T14:44:52.330Z,101482.25
2022-11-29T14:47:49.182Z,101479.72
2022-11-29T14:50:32.246Z,101483.75
2022-11-29T14:52:59.836Z,101485.09
2022-11-29T14:55:26.814Z,101453.28
2022-11-29T14:58:06.418Z,101483.84
2022-11-29T15:00:40.911Z,101487.63
2022-11-29T15:03:10.869Z,101495.66
2022-11-29T15:05:58.014Z,101501.25
2022-11-29T15:08:54.413Z,101492.50
2022-11-29T15:11:35.573Z,101478.50
2022-11-29T15:14:06.724Z,101501.53
2022-11-29T15:16:56.972Z,101508.69
2022-11-29T15:19:42.112Z,101499.19
2022-11-29T15:22:20.046Z,101502.03
2022-11-29T15:25:03.026Z,101497.28
2022-11-29T15:27:37.381Z,101497.16
2022-11-29T15:30:32.482Z,101497.06
2022-11-29T15:33:02.007Z,101473.09
2022-11-29T15:35:30.211Z,101492.41
2022-11-29T15:37:57.726Z,101494.63
2022-11-29T15:40:39.846Z,101476.97
2022-11-29T15:43:38.055Z,101480.91
2022-11-29T15:46:05.365Z,101495.16
2022-11-29T15:48:32.981Z,101479.78
2022-11-29T15:51:03.306Z,101487.22
2022-11-29T15:53:42.765Z,101487.34
2022-11-29T15:56:25.584Z,101478.78
2022-11-29T15:59:01.278Z,101427.03
2022-11-29T16:01:30.327Z,101494.66
2022-11-29T16:03:59.530Z,101467.22
2022-11-29T16:06:42.775Z,101473.88
2022-11-29T16:09:16.327Z,101494.22
2022-11-29T16:11:44.205Z,101486.22
2022-11-29T16:14:27.029Z,101490.75
2022-11-29T16:16:57.145Z,101493.78
2022-11-29T16:19:38.158Z,101483.84
2022-11-29T16:22:24.069Z,101512.44
2022-11-29T16:24:54.723Z,101512.34
2022-11-29T16:27:23.031Z,101523.00
2022-11-29T16:29:57.130Z,101506.72
2022-11-29T16:32:34.732Z,101522.44
2022-11-29T16:35:16.806Z,101501.16
2022-11-29T16:37:46.762Z,101502.97
2022-11-29T16:40:26.918Z,101493.84
2022-11-29T16:43:09.532Z,101499.13
2022-11-29T16:45:41.607Z,101487.47
2022-11-29T16:48:27.110Z,101499.63
2022-11-29T16:51:17.203Z,101492.16
2022-11-29T16:53:49.893Z,101480.06
2022-11-29T16:56:19.460Z,101501.41
2022-11-29T16:59:25.826Z,101497.09
2022-11-29T17:01:37.608Z,101499.44
2022-11-29T17:04:09.015Z,101498.97
2022-11-29T17:06:37.405Z,101507.06
2022-11-29T17:12:22.613Z,101490.22
2022-11-29T17:14:50.613Z,101489.47
2022-11-29T17:17:19.675Z,101481.75
2022-11-29T17:19:50.474Z,101486.84
2022-11-29T17:22:17.662Z,101484.59
2022-11-29T17:25:10.862Z,101477.44
2022-11-29T17:28:04.891Z,101486.66
2022-11-29T17:30:33.504Z,101473.41
2022-11-29T17:33:00.515Z,101488.81
2022-11-29T17:35:39.010Z,101497.75
2022-11-29T17:38:10.973Z,101490.59
2022-11-29T17:43:38.459Z,101486.94
2022-11-29T17:46:16.476Z,101486.00
2022-11-29T17:48:48.824Z,101466.72
2022-11-29T17:51:50.033Z,101471.59
2022-11-29T17:54:10.600Z,101487.78
2022-11-29T17:56:38.536Z,101490.22
2022-11-29T17:59:07.009Z,101482.13
2022-11-29T18:02:02.234Z,101489.47
2022-11-29T18:04:31.923Z,101490.03
2022-11-29T18:13:08.307Z,101501.88
2022-11-29T18:16:13.070Z,101502.56
2022-11-29T18:18:44.316Z,101481.06
2022-11-29T18:21:15.592Z,101505.00
2022-11-29T18:23:43.444Z,101491.53
2022-11-29T18:26:20.209Z,101522.59
2022-11-29T18:32:03.982Z,101493.22
2022-11-29T18:34:31.026Z,101502.72
2022-11-29T18:39:57.280Z,101495.00
2022-11-29T18:42:51.117Z,101503.50
2022-11-29T18:45:44.246Z,101490.22
2022-11-29T18:48:12.072Z,101516.38
2022-11-29T18:50:39.933Z,101498.13
2022-11-29T18:53:07.040Z,101502.16
2022-11-29T18:55:38.099Z,101505.84
2022-11-29T18:58:31.054Z,101505.44
2022-11-29T19:01:48.954Z,101491.22
2022-11-29T19:04:33.118Z,101452.03
2022-11-29T19:07:01.006Z,101479.88
2022-11-29T19:09:30.335Z,101482.66
2022-11-29T19:12:00.049Z,101488.34
2022-11-29T19:14:32.608Z,101503.66
2022-11-29T19:17:00.274Z,101446.84
2022-11-29T19:19:52.594Z,101492.75
2022-11-29T19:22:22.838Z,101478.94
2022-11-29T19:25:17.006Z,101481.16
2022-11-29T19:27:52.300Z,101488.53
2022-11-29T19:30:44.734Z,101503.56
2022-11-29T19:33:41.987Z,101500.63
2022-11-29T19:36:23.637Z,101477.03
2022-11-29T19:39:17.951Z,101475.25
2022-11-29T19:41:50.030Z,101507.38
2022-11-29T19:45:15.329Z,101508.13
2022-11-29T19:47:35.295Z,101525.94
2022-11-29T19:50:53.270Z,101504.47
2022-11-29T19:53:27.944Z,101475.69
2022-11-29T19:56:20.957Z,101508.72
2022-11-29T19:59:13.284Z,101504.56
2022-11-29T20:01:42.250Z,101513.16
2022-11-29T20:04:13.234Z,101510.50
2022-11-29T20:09:57.542Z,101480.97
2022-11-29T20:12:24.870Z,101502.75
2022-11-29T20:15:17.045Z,101489.22
2022-11-29T20:17:44.120Z,101508.88
2022-11-29T20:20:11.920Z,101508.13
2022-11-29T20:22:39.741Z,101500.63
2022-11-29T20:25:07.291Z,101517.09
2022-11-29T20:27:34.523Z,101513.22
2022-11-29T20:30:02.006Z,101509.38
2022-11-29T20:32:31.931Z,101490.03
2022-11-29T20:35:00.565Z,101513.50
2022-11-29T20:37:37.442Z,101490.03
2022-11-29T20:40:12.100Z,101510.56
2022-11-29T20:42:53.867Z,101510.41
2022-11-29T20:45:22.553Z,101522.16
2022-11-29T20:47:56.697Z,101521.91
2022-11-29T20:50:27.177Z,101494.31
2022-11-29T20:53:14.648Z,101505.22
2022-11-29T20:55:47.701Z,101501.56
2022-11-29T20:58:16.300Z,101513.91
2022-11-29T21:00:43.396Z,101509.25
2022-11-29T21:03:36.221Z,101518.31
2022-11-29T21:06:05.709Z,101510.84
2022-11-29T21:08:33.620Z,101513.78
2022-11-29T21:11:06.787Z,101526.59
2022-11-29T21:13:35.550Z,101499.75
2022-11-29T21:16:03.463Z,101481.41
2022-11-29T21:18:31.630Z,101507.06
2022-11-29T21:21:10.294Z,101483.19
2022-11-29T21:24:09.549Z,101515.63
2022-11-29T21:26:42.540Z,101520.06
2022-11-29T21:29:17.079Z,101526.09
2022-11-29T21:31:45.501Z,101506.88
2022-11-29T21:34:12.617Z,101519.22
2022-11-29T21:36:40.157Z,101514.03
2022-11-29T21:39:08.817Z,101507.28
2022-11-29T21:41:36.391Z,101508.22
2022-11-29T21:44:07.724Z,101519.50
2022-11-29T21:46:35.493Z,101517.19
2022-11-29T21:49:02.519Z,101517.72
2022-11-29T21:51:29.604Z,101520.16
2022-11-29T21:53:56.907Z,101523.75
2022-11-29T21:56:24.156Z,101506.09
2022-11-29T21:58:51.099Z,101521.31
2022-11-29T22:01:20.409Z,101525.53
2022-11-29T22:03:48.011Z,101515.84
2022-11-29T22:06:20.587Z,101517.91
2022-11-29T22:08:48.502Z,101525.34
2022-11-29T22:11:31.261Z,101536.19
2022-11-29T22:14:15.885Z,101525.34
2022-11-29T22:16:46.724Z,101524.59
2022-11-29T22:19:16.451Z,101532.69
2022-11-29T22:21:46.160Z,101529.88
2022-11-29T22:24:14.857Z,101518.88
2022-11-29T22:26:43.855Z,101532.59
2022-11-29T22:29:14.155Z,101521.97
2022-11-29T22:31:46.503Z,101523.19
2022-11-29T22:34:13.836Z,101535.25
2022-11-29T22:36:41.075Z,101526.59
2022-11-29T22:39:09.330Z,101521.41
2022-11-29T22:41:37.953Z,101528.47
2022-11-29T22:44:06.050Z,101513.69
2022-11-29T22:46:35.537Z,101537.13
2022-11-29T22:49:03.266Z,101529.22
2022-11-29T22:51:36.054Z,101534.78
2022-11-29T22:54:10.588Z,101544.41
2022-11-29T22:56:40.646Z,101524.69
2022-11-29T22:59:08.239Z,101523.69
2022-11-29T23:01:37.741Z,101520.47
2022-11-29T23:04:07.329Z,101531.50
2022-11-29T23:06:35.691Z,101524.91
2022-11-29T23:09:10.811Z,101530.66
2022-11-29T23:11:38.768Z,101528.38
2022-11-29T23:14:05.761Z,101542.31
2022-11-29T23:16:33.629Z,101517.13
2022-11-29T23:19:02.822Z,101529.81
2022-11-29T23:21:32.192Z,101526.44
2022-11-29T23:24:01.077Z,101525.84
2022-11-29T23:26:36.506Z,101522.66
2022-11-29T23:29:05.416Z,101540.63
2022-11-29T23:31:33.018Z,101532.16
2022-11-29T23:34:00.510Z,101506.28
2022-11-29T23:36:27.529Z,101531.97
2022-11-29T23:38:54.589Z,101524.16
2022-11-29T23:41:21.711Z,101517.19
2022-11-29T23:43:48.638Z,101527.63
2022-11-29T23:46:18.603Z,101503.47
2022-11-29T23:48:46.079Z,101505.91
2022-11-29T23:51:14.009Z,101523.09
2022-11-29T23:53:42.065Z,101523.31
2022-11-29T23:56:13.416Z,101526.69
2022-11-29T23:58:40.994Z,101512.84
